Time;durP1;ratioP1;P1;durP2;ratioP2;P2;SDS_P1;SDS_P2;PMS_P1;PMS_P2;Temp;Humidity;BMP_temperature;BMP_pressure;BME280_temperature;BME280_humidity;BME280_pressure;Samples;Min_cycle;Max_cycle;Signal;HPM_P1;HPM_P2
2022/10/16 00:01:42;;;;;;;8.38;1.75;;;;;;;;;;5070956;28;20424;-64
2022/10/16 00:04:09;;;;;;;7.38;2.05;;;;;;;;;;5070135;28;20044;-64
2022/10/16 00:06:35;;;;;;;7.72;2.10;;;;;;;;;;5071269;28;20032;-64
2022/10/16 00:09:01;;;;;;;10.63;2.03;;;;;;;;;;5069528;28;20068;-64
2022/10/16 00:11:29;;;;;;;5.95;1.92;;;;;;;;;;5070937;28;20403;-64
2022/10/16 00:13:57;;;;;;;6.03;2.20;;;;;;;;;;5071141;28;20056;-64
2022/10/16 00:16:23;;;;;;;10.50;2.40;;;;;;;;;;5070678;28;20044;-64
2022/10/16 00:18:49;;;;;;;6.97;1.80;;;;;;;;;;5071034;28;20078;-64
2022/10/16 00:21:20;;;;;;;8.95;1.67;;;;;;;;;;5070897;28;20460;-64
2022/10/16 00:23:46;;;;;;;7.13;1.77;;;;;;;;;;5070708;28;20123;-64
2022/10/16 00:26:14;;;;;;;6.63;1.90;;;;;;;;;;5070714;28;20051;-64
2022/10/16 00:28:41;;;;;;;4.45;1.80;;;;;;;;;;5070934;28;20127;-64
2022/10/16 00:31:08;;;;;;;5.43;1.70;;;;;;;;;;5069411;28;20048;-64
2022/10/16 00:33:35;;;;;;;4.88;1.67;;;;;;;;;;5071026;28;20044;-65
2022/10/16 00:36:02;;;;;;;6.85;1.65;;;;;;;;;;5070818;28;20536;-64
2022/10/16 00:38:28;;;;;;;8.88;1.63;;;;;;;;;;5070423;28;20041;-64
2022/10/16 00:40:54;;;;;;;6.22;1.95;;;;;;;;;;5070877;28;20028;-64
2022/10/16 00:43:35;;;;;;;5.88;1.80;;;;;;;;;;5070896;28;20447;-64
2022/10/16 00:46:02;;;;;;;6.85;1.80;;;;;;;;;;5069553;28;20098;-64
2022/10/16 00:48:28;;;;;;;6.35;1.48;;;;;;;;;;5070729;28;20124;-64
2022/10/16 00:50:54;;;;;;;5.32;1.55;;;;;;;;;;5070757;28;20045;-64
2022/10/16 00:53:20;;;;;;;5.40;1.70;;;;;;;;;;5070327;28;20466;-64
2022/10/16 00:55:46;;;;;;;7.20;1.55;;;;;;;;;;5070480;28;20044;-64
2022/10/16 00:58:12;;;;;;;8.50;1.70;;;;;;;;;;5070583;28;20098;-64
2022/10/16 01:00:38;;;;;;;4.90;2.08;;;;;;;;;;5070021;28;20059;-64
2022/10/16 01:03:22;;;;;;;8.20;1.85;;;;;;;;;;5070739;28;20516;-64
2022/10/16 01:05:53;;;;;;;11.43;2.10;;;;;;;;;;5070502;28;20128;-64
2022/10/16 01:08:22;;;;;;;8.88;2.03;;;;;;;;;;5070110;28;20848;-64
2022/10/16 01:10:54;;;;;;;5.70;1.90;;;;;;;;;;5070148;28;20088;-64
2022/10/16 01:13:34;;;;;;;6.22;1.83;;;;;;;;;;5070465;28;20094;-64
2022/10/16 01:16:06;;;;;;;11.98;2.20;;;;;;;;;;5069579;28;20044;-64
2022/10/16 01:18:41;;;;;;;7.05;2.47;;;;;;;;;;5070516;28;20033;-64
2022/10/16 01:21:26;;;;;;;6.45;2.00;;;;;;;;;;5070377;28;20053;-64
2022/10/16 01:24:12;;;;;;;8.68;2.08;;;;;;;;;;5069967;28;20078;-64
2022/10/16 01:26:38;;;;;;;4.28;1.80;;;;;;;;;;5058782;28;20495;-65
2022/10/16 01:29:15;;;;;;;5.15;1.58;;;;;;;;;;5069964;28;20094;-65
2022/10/16 01:31:44;;;;;;;6.28;2.30;;;;;;;;;;5070099;28;20083;-65
2022/10/16 01:34:14;;;;;;;8.13;1.67;;;;;;;;;;5070353;28;20044;-64
2022/10/16 01:36:42;;;;;;;2.47;1.70;;;;;;;;;;5070065;28;20044;-64
2022/10/16 01:39:11;;;;;;;7.05;1.90;;;;;;;;;;5069867;28;20037;-64
2022/10/16 01:41:44;;;;;;;5.78;2.08;;;;;;;;;;5070415;28;20131;-64
2022/10/16 01:44:12;;;;;;;6.32;1.80;;;;;;;;;;5070052;28;20079;-64
2022/10/16 01:46:40;;;;;;;5.85;1.50;;;;;;;;;;5069844;28;20036;-64
2022/10/16 01:49:06;;;;;;;4.45;1.83;;;;;;;;;;5068877;28;20075;-64
2022/10/16 01:51:33;;;;;;;6.35;1.77;;;;;;;;;;5070180;28;20494;-64
2022/10/16 01:54:01;;;;;;;3.40;1.58;;;;;;;;;;5068245;28;20068;-64
2022/10/16 01:56:28;;;;;;;5.80;1.92;;;;;;;;;;5071108;28;20113;-64
2022/10/16 01:58:56;;;;;;;3.08;1.70;;;;;;;;;;5073628;28;20063;-64
2022/10/16 02:01:23;;;;;;;5.47;1.63;;;;;;;;;;5073248;28;20036;-64
2022/10/16 02:03:52;;;;;;;6.75;1.90;;;;;;;;;;5073586;28;20463;-64
2022/10/16 02:06:18;;;;;;;10.25;2.35;;;;;;;;;;5073543;28;20498;-64
2022/10/16 02:08:44;;;;;;;4.85;1.73;;;;;;;;;;5072878;28;20048;-64
2022/10/16 02:11:11;;;;;;;6.03;1.83;;;;;;;;;;5073314;28;20064;-64
2022/10/16 02:13:42;;;;;;;3.67;1.50;;;;;;;;;;5073523;28;20052;-64
2022/10/16 02:16:09;;;;;;;7.32;2.10;;;;;;;;;;5073156;28;20110;-64
2022/10/16 02:18:35;;;;;;;6.95;1.90;;;;;;;;;;5073419;28;20175;-64
2022/10/16 02:21:04;;;;;;;4.35;1.80;;;;;;;;;;5073260;28;20491;-64
2022/10/16 02:23:52;;;;;;;7.53;1.77;;;;;;;;;;5072667;28;20046;-64
2022/10/16 02:26:23;;;;;;;4.10;1.80;;;;;;;;;;5071554;28;20449;-64
2022/10/16 02:28:52;;;;;;;5.20;1.90;;;;;;;;;;5072923;28;20052;-64
2022/10/16 02:31:22;;;;;;;6.90;2.30;;;;;;;;;;5073339;28;20199;-64
2022/10/16 02:33:48;;;;;;;5.15;2.10;;;;;;;;;;5073372;28;20435;-64
2022/10/16 02:36:14;;;;;;;10.02;3.03;;;;;;;;;;5072580;28;20137;-64
2022/10/16 02:38:41;;;;;;;4.25;1.90;;;;;;;;;;5072882;28;20036;-64
2022/10/16 02:41:07;;;;;;;5.25;2.03;;;;;;;;;;5072708;28;20041;-64
2022/10/16 02:43:33;;;;;;;9.63;2.35;;;;;;;;;;5073128;28;20033;-64
2022/10/16 02:46:00;;;;;;;4.65;1.88;;;;;;;;;;5072838;28;20094;-64
2022/10/16 02:48:26;;;;;;;3.88;2.08;;;;;;;;;;5071249;28;20445;-64
2022/10/16 02:50:52;;;;;;;7.03;2.72;;;;;;;;;;5072569;28;20048;-64
2022/10/16 02:53:18;;;;;;;5.90;2.10;;;;;;;;;;5072548;28;20466;-64
2022/10/16 02:55:44;;;;;;;6.80;2.15;;;;;;;;;;5072827;28;20079;-64
2022/10/16 02:58:10;;;;;;;5.20;2.00;;;;;;;;;;5072523;28;20052;-64
2022/10/16 03:00:36;;;;;;;5.47;2.47;;;;;;;;;;5072413;28;20033;-64
2022/10/16 03:03:02;;;;;;;5.43;2.28;;;;;;;;;;5072329;28;20079;-64
2022/10/16 03:05:28;;;;;;;5.88;2.25;;;;;;;;;;5072236;28;20044;-64
2022/10/16 03:07:54;;;;;;;4.53;2.58;;;;;;;;;;5071205;28;20041;-64
2022/10/16 03:10:20;;;;;;;5.03;1.90;;;;;;;;;;5072386;28;20043;-64
2022/10/16 03:12:46;;;;;;;4.65;2.25;;;;;;;;;;5072160;28;20092;-64
2022/10/16 03:15:12;;;;;;;4.90;1.92;;;;;;;;;;5071916;28;20048;-64
2022/10/16 03:17:38;;;;;;;8.32;2.20;;;;;;;;;;5072176;28;20087;-64
2022/10/16 03:20:05;;;;;;;5.80;3.10;;;;;;;;;;5071864;28;20036;-64
2022/10/16 03:22:31;;;;;;;4.97;2.10;;;;;;;;;;5071821;28;20041;-64
2022/10/16 03:24:57;;;;;;;3.55;1.98;;;;;;;;;;5072094;28;20082;-64
2022/10/16 03:27:23;;;;;;;4.57;2.35;;;;;;;;;;5072144;28;20398;-64
2022/10/16 03:29:49;;;;;;;9.48;2.70;;;;;;;;;;5071385;28;20044;-64
2022/10/16 03:32:15;;;;;;;6.72;2.10;;;;;;;;;;5072139;28;20040;-64
2022/10/16 03:34:41;;;;;;;5.82;2.05;;;;;;;;;;5071993;28;20080;-64
2022/10/16 03:37:07;;;;;;;5.60;2.30;;;;;;;;;;5071495;28;20068;-64
2022/10/16 03:39:33;;;;;;;8.20;2.60;;;;;;;;;;5071740;28;20130;-64
2022/10/16 03:41:59;;;;;;;6.13;2.33;;;;;;;;;;5071771;28;20041;-64
2022/10/16 03:44:25;;;;;;;3.65;2.10;;;;;;;;;;5071525;28;20039;-64
2022/10/16 03:46:51;;;;;;;6.03;1.77;;;;;;;;;;5071817;28;20039;-64
2022/10/16 03:49:17;;;;;;;4.68;2.13;;;;;;;;;;5071576;28;20119;-64
2022/10/16 03:51:43;;;;;;;4.63;2.08;;;;;;;;;;5071263;28;20066;-64
2022/10/16 03:54:10;;;;;;;4.35;2.20;;;;;;;;;;5071696;28;20044;-64
2022/10/16 03:56:36;;;;;;;6.65;2.45;;;;;;;;;;5071478;28;20450;-64
2022/10/16 03:59:02;;;;;;;3.58;2.03;;;;;;;;;;5070930;28;20038;-64
2022/10/16 04:01:28;;;;;;;7.13;2.58;;;;;;;;;;5071072;28;20040;-64
2022/10/16 04:03:54;;;;;;;5.63;2.20;;;;;;;;;;5071411;28;20036;-64
2022/10/16 04:06:20;;;;;;;6.75;2.10;;;;;;;;;;5070475;28;20043;-64
2022/10/16 04:08:46;;;;;;;4.63;2.50;;;;;;;;;;5071182;28;20041;-64
2022/10/16 04:11:12;;;;;;;4.53;2.53;;;;;;;;;;5071008;28;20464;-64
2022/10/16 04:13:38;;;;;;;2.67;2.00;;;;;;;;;;5070815;28;20143;-64
2022/10/16 04:16:04;;;;;;;4.57;2.28;;;;;;;;;;5071121;28;20481;-64
2022/10/16 04:18:30;;;;;;;5.97;2.95;;;;;;;;;;5070650;28;20056;-64
2022/10/16 04:20:56;;;;;;;5.60;2.47;;;;;;;;;;5070459;28;20518;-64
2022/10/16 04:23:23;;;;;;;4.72;2.47;;;;;;;;;;5071289;28;20126;-64
2022/10/16 04:25:49;;;;;;;8.60;3.03;;;;;;;;;;5070945;28;20040;-64
2022/10/16 04:28:15;;;;;;;4.43;2.63;;;;;;;;;;5070453;28;20044;-64
2022/10/16 04:30:41;;;;;;;3.88;2.40;;;;;;;;;;5069841;28;20079;-64
2022/10/16 04:33:09;;;;;;;5.05;2.63;;;;;;;;;;5071056;28;20053;-64
2022/10/16 04:35:35;;;;;;;6.45;2.72;;;;;;;;;;5070615;28;20078;-64
2022/10/16 04:38:01;;;;;;;4.20;3.00;;;;;;;;;;5069568;28;20055;-64
2022/10/16 04:40:28;;;;;;;6.30;2.80;;;;;;;;;;5070900;28;20085;-64
2022/10/16 04:42:54;;;;;;;7.15;2.80;;;;;;;;;;5070468;28;20387;-64
2022/10/16 04:45:20;;;;;;;4.72;2.88;;;;;;;;;;5071034;28;20052;-64
2022/10/16 04:47:46;;;;;;;4.55;3.15;;;;;;;;;;5070845;28;20092;-64
2022/10/16 04:50:12;;;;;;;7.32;2.83;;;;;;;;;;5070462;28;20049;-64
2022/10/16 04:52:38;;;;;;;5.60;3.03;;;;;;;;;;5070811;28;20436;-64
2022/10/16 04:55:05;;;;;;;9.38;3.70;;;;;;;;;;5070792;28;20045;-64
2022/10/16 04:57:31;;;;;;;7.40;3.47;;;;;;;;;;5070268;28;20063;-64
2022/10/16 04:59:57;;;;;;;9.25;3.30;;;;;;;;;;5070622;28;20475;-64
2022/10/16 05:02:23;;;;;;;6.28;3.03;;;;;;;;;;5070748;28;20143;-64
2022/10/16 05:04:49;;;;;;;5.75;3.05;;;;;;;;;;5069975;28;20048;-64
2022/10/16 05:07:15;;;;;;;4.80;3.00;;;;;;;;;;5070724;28;20042;-64
2022/10/16 05:09:41;;;;;;;6.60;3.30;;;;;;;;;;5070584;28;20442;-64
2022/10/16 05:12:07;;;;;;;5.82;3.42;;;;;;;;;;5068459;28;20060;-64
2022/10/16 05:14:33;;;;;;;4.30;3.13;;;;;;;;;;5070095;28;20036;-64
2022/10/16 05:17:00;;;;;;;6.65;3.55;;;;;;;;;;5070058;28;20070;-64
2022/10/16 05:19:26;;;;;;;4.20;2.75;;;;;;;;;;5070182;28;20068;-64
2022/10/16 05:21:52;;;;;;;6.28;3.15;;;;;;;;;;5070421;28;20133;-64
2022/10/16 05:24:18;;;;;;;7.22;3.03;;;;;;;;;;5070579;28;20390;-64
2022/10/16 05:26:44;;;;;;;6.93;3.13;;;;;;;;;;5069996;28;20045;-64
2022/10/16 05:29:10;;;;;;;8.80;3.13;;;;;;;;;;5070335;28;20039;-64
2022/10/16 05:31:37;;;;;;;7.63;3.80;;;;;;;;;;5071856;28;20374;-64
2022/10/16 05:34:03;;;;;;;6.45;3.25;;;;;;;;;;5072661;28;20077;-64
2022/10/16 05:36:29;;;;;;;5.05;3.03;;;;;;;;;;5074144;28;20040;-64
2022/10/16 05:38:55;;;;;;;6.70;3.50;;;;;;;;;;5074154;28;20036;-64
2022/10/16 05:41:23;;;;;;;6.25;3.10;;;;;;;;;;5073541;28;20692;-64
2022/10/16 05:43:49;;;;;;;4.95;3.10;;;;;;;;;;5074217;28;20040;-64
2022/10/16 05:46:16;;;;;;;6.20;3.33;;;;;;;;;;5074129;28;20174;-64
2022/10/16 05:48:42;;;;;;;6.13;3.33;;;;;;;;;;5073534;28;20044;-64
2022/10/16 05:51:10;;;;;;;7.20;3.25;;;;;;;;;;5074006;28;20044;-64
2022/10/16 05:53:36;;;;;;;5.22;2.92;;;;;;;;;;5073952;28;20069;-64
2022/10/16 05:56:03;;;;;;;5.43;3.08;;;;;;;;;;5073327;28;20043;-64
2022/10/16 05:58:30;;;;;;;6.30;3.33;;;;;;;;;;5073646;28;20085;-64
2022/10/16 06:00:57;;;;;;;8.63;3.72;;;;;;;;;;5073829;28;20041;-64
2022/10/16 06:03:24;;;;;;;4.68;3.20;;;;;;;;;;5073546;28;20037;-64
2022/10/16 06:05:50;;;;;;;4.28;3.00;;;;;;;;;;5073364;28;20090;-64
2022/10/16 06:08:16;;;;;;;8.52;3.30;;;;;;;;;;5073713;28;20045;-64
2022/10/16 06:10:43;;;;;;;5.32;2.90;;;;;;;;;;5073454;28;20047;-64
2022/10/16 06:13:09;;;;;;;6.97;2.88;;;;;;;;;;5073285;28;20544;-64
2022/10/16 06:15:35;;;;;;;4.80;2.97;;;;;;;;;;5073364;28;20040;-64
2022/10/16 06:18:01;;;;;;;9.85;3.13;;;;;;;;;;5073451;28;20421;-64
2022/10/16 06:20:27;;;;;;;9.85;3.28;;;;;;;;;;5072686;28;20040;-64
2022/10/16 06:22:53;;;;;;;6.13;3.08;;;;;;;;;;5073337;28;20040;-64
2022/10/16 06:25:19;;;;;;;9.93;3.08;;;;;;;;;;5073326;28;20123;-64
2022/10/16 06:27:45;;;;;;;9.20;3.13;;;;;;;;;;5072926;28;20464;-64
2022/10/16 06:30:11;;;;;;;6.55;2.90;;;;;;;;;;5073163;28;20036;-64
2022/10/16 06:32:37;;;;;;;5.15;2.78;;;;;;;;;;5073293;28;20080;-64
2022/10/16 06:35:04;;;;;;;7.18;3.00;;;;;;;;;;5072774;28;20044;-64
2022/10/16 06:37:30;;;;;;;6.35;2.95;;;;;;;;;;5073150;28;20515;-64
2022/10/16 06:39:56;;;;;;;5.38;2.78;;;;;;;;;;5072804;28;20493;-64
2022/10/16 06:42:22;;;;;;;4.38;2.67;;;;;;;;;;5072476;28;20052;-64
2022/10/16 06:44:48;;;;;;;6.03;2.42;;;;;;;;;;5072965;28;20056;-64
2022/10/16 06:47:14;;;;;;;4.15;2.42;;;;;;;;;;5072938;28;20040;-64
2022/10/16 06:49:40;;;;;;;4.90;2.40;;;;;;;;;;5072446;28;20040;-64
2022/10/16 06:52:06;;;;;;;4.57;2.60;;;;;;;;;;5072895;28;20137;-64
2022/10/16 06:54:32;;;;;;;7.50;2.17;;;;;;;;;;5072728;28;20098;-64
2022/10/16 06:56:59;;;;;;;5.53;2.47;;;;;;;;;;5072457;28;20044;-64
2022/10/16 06:59:26;;;;;;;10.20;2.40;;;;;;;;;;5072378;28;20040;-64
2022/10/16 07:01:52;;;;;;;6.10;2.42;;;;;;;;;;5072611;28;20043;-64
2022/10/16 07:04:18;;;;;;;6.53;2.58;;;;;;;;;;5072243;28;20046;-64
2022/10/16 07:06:44;;;;;;;6.68;2.53;;;;;;;;;;5072256;28;20036;-64
2022/10/16 07:09:10;;;;;;;5.68;2.50;;;;;;;;;;5072456;28;20040;-64
2022/10/16 07:11:37;;;;;;;4.65;2.25;;;;;;;;;;5071797;28;20056;-64
2022/10/16 07:14:03;;;;;;;8.15;3.72;;;;;;;;;;5072259;28;20052;-64
2022/10/16 07:16:31;;;;;;;4.97;2.00;;;;;;;;;;5072403;28;20036;-64
2022/10/16 07:18:58;;;;;;;5.05;2.33;;;;;;;;;;5071614;28;20052;-64
2022/10/16 07:21:28;;;;;;;6.30;2.35;;;;;;;;;;5072335;28;20047;-64
2022/10/16 07:23:55;;;;;;;6.00;2.50;;;;;;;;;;5071941;28;20036;-64
2022/10/16 07:26:22;;;;;;;8.32;2.50;;;;;;;;;;5071751;28;20067;-64
2022/10/16 07:28:48;;;;;;;5.18;2.20;;;;;;;;;;5072124;28;20068;-64
2022/10/16 07:31:15;;;;;;;6.55;2.33;;;;;;;;;;5072255;28;20083;-64
2022/10/16 07:33:44;;;;;;;6.63;2.22;;;;;;;;;;5071565;28;20143;-64
2022/10/16 07:36:10;;;;;;;6.43;2.38;;;;;;;;;;5071867;28;20169;-64
2022/10/16 07:38:36;;;;;;;7.72;2.92;;;;;;;;;;5071793;28;20444;-64
2022/10/16 07:41:04;;;;;;;5.63;1.98;;;;;;;;;;5071422;28;20371;-64
2022/10/16 07:43:30;;;;;;;10.93;2.58;;;;;;;;;;5071697;28;20048;-64
2022/10/16 07:45:57;;;;;;;7.55;2.00;;;;;;;;;;5071772;28;20036;-64
2022/10/16 07:48:23;;;;;;;6.97;2.05;;;;;;;;;;5070894;28;20052;-64
2022/10/16 07:50:49;;;;;;;4.93;1.75;;;;;;;;;;5071682;28;20139;-64
2022/10/16 07:53:16;;;;;;;7.95;1.92;;;;;;;;;;5071659;28;20044;-64
2022/10/16 07:55:42;;;;;;;4.82;1.60;;;;;;;;;;5070611;28;20036;-64
2022/10/16 07:58:08;;;;;;;6.47;1.90;;;;;;;;;;5071609;28;20047;-64
2022/10/16 08:00:34;;;;;;;6.60;1.58;;;;;;;;;;5071499;28;20441;-64
2022/10/16 08:03:00;;;;;;;3.70;1.60;;;;;;;;;;5070974;28;20059;-64
2022/10/16 08:05:27;;;;;;;4.45;1.88;;;;;;;;;;5071304;28;20040;-64
2022/10/16 08:07:53;;;;;;;9.02;1.73;;;;;;;;;;5071230;28;20052;-64
2022/10/16 08:10:20;;;;;;;7.28;1.73;;;;;;;;;;5070547;28;20135;-64
2022/10/16 08:12:46;;;;;;;5.15;1.65;;;;;;;;;;5069633;28;20052;-64
2022/10/16 08:15:12;;;;;;;5.95;1.25;;;;;;;;;;5071123;28;20041;-64
2022/10/16 08:17:38;;;;;;;6.90;1.20;;;;;;;;;;5070456;28;20037;-64
2022/10/16 08:20:05;;;;;;;3.75;1.08;;;;;;;;;;5070979;28;20044;-64
2022/10/16 08:22:31;;;;;;;5.65;1.00;;;;;;;;;;5070760;28;20414;-64
2022/10/16 08:24:57;;;;;;;4.00;0.82;;;;;;;;;;5070660;28;20101;-64
2022/10/16 08:27:23;;;;;;;5.38;1.00;;;;;;;;;;5071115;28;20040;-64
2022/10/16 08:29:49;;;;;;;4.93;0.95;;;;;;;;;;5070714;28;20048;-64
2022/10/16 08:32:15;;;;;;;2.90;0.80;;;;;;;;;;5070541;28;20139;-64
2022/10/16 08:34:41;;;;;;;7.18;1.20;;;;;;;;;;5070997;28;20068;-64
2022/10/16 08:37:10;;;;;;;3.08;0.95;;;;;;;;;;5071021;28;20087;-65
2022/10/16 08:39:37;;;;;;;10.75;1.40;;;;;;;;;;5070166;28;20040;-65
2022/10/16 08:42:09;;;;;;;4.75;1.45;;;;;;;;;;5069562;28;20044;-65
2022/10/16 08:44:36;;;;;;;3.35;0.90;;;;;;;;;;5070701;28;20093;-64
2022/10/16 08:47:12;;;;;;;4.15;1.20;;;;;;;;;;5070236;28;20494;-64
2022/10/16 08:49:40;;;;;;;6.60;1.50;;;;;;;;;;5070454;28;20064;-64
2022/10/16 08:52:11;;;;;;;3.65;1.27;;;;;;;;;;5070535;28;20037;-64
2022/10/16 08:54:43;;;;;;;7.25;1.80;;;;;;;;;;5070368;28;20048;-64
2022/10/16 08:57:12;;;;;;;4.05;1.77;;;;;;;;;;5070683;28;20047;-64
2022/10/16 08:59:38;;;;;;;4.05;1.30;;;;;;;;;;5070395;28;20079;-64
2022/10/16 09:02:19;;;;;;;4.68;1.63;;;;;;;;;;5070327;28;20057;-64
2022/10/16 09:04:45;;;;;;;4.38;1.63;;;;;;;;;;5070661;28;20086;-64
2022/10/16 09:07:16;;;;;;;6.20;1.92;;;;;;;;;;5072928;28;20037;-64
2022/10/16 09:09:44;;;;;;;8.85;2.13;;;;;;;;;;5074320;28;20041;-64
2022/10/16 09:12:16;;;;;;;7.03;1.70;;;;;;;;;;5074205;28;20056;-64
2022/10/16 09:14:57;;;;;;;7.72;1.70;;;;;;;;;;5074566;28;20435;-64
2022/10/16 09:17:44;;;;;;;11.30;1.80;;;;;;;;;;5074366;28;20379;-65
2022/10/16 09:20:17;;;;;;;6.50;1.77;;;;;;;;;;5074113;28;20087;-65
2022/10/16 09:22:44;;;;;;;8.98;2.85;;;;;;;;;;5074565;28;20039;-65
2022/10/16 09:25:14;;;;;;;7.25;1.40;;;;;;;;;;5074140;28;20040;-65
2022/10/16 09:27:40;;;;;;;5.32;1.80;;;;;;;;;;5074427;28;20041;-65
2022/10/16 09:30:13;;;;;;;9.15;1.70;;;;;;;;;;5074393;28;20116;-65
2022/10/16 09:32:40;;;;;;;6.03;1.55;;;;;;;;;;5074125;28;20080;-65
2022/10/16 09:35:11;;;;;;;10.15;1.80;;;;;;;;;;5074264;28;20045;-65
2022/10/16 09:37:37;;;;;;;6.67;1.80;;;;;;;;;;5073075;28;20043;-65
2022/10/16 09:40:03;;;;;;;9.85;1.83;;;;;;;;;;5073565;28;20306;-65
2022/10/16 09:42:35;;;;;;;9.57;2.00;;;;;;;;;;5073898;28;20420;-65
2022/10/16 09:45:01;;;;;;;10.63;1.95;;;;;;;;;;5073641;28;20044;-65
2022/10/16 09:47:28;;;;;;;9.75;1.90;;;;;;;;;;5073870;28;20040;-65
2022/10/16 09:50:04;;;;;;;7.97;1.50;;;;;;;;;;5073987;28;20490;-65
2022/10/16 09:52:30;;;;;;;5.70;1.60;;;;;;;;;;5073861;28;20049;-65
2022/10/16 09:54:57;;;;;;;7.57;1.83;;;;;;;;;;5073540;28;20041;-65
2022/10/16 09:57:24;;;;;;;5.57;1.20;;;;;;;;;;5073890;28;20490;-65
2022/10/16 09:59:51;;;;;;;8.30;1.60;;;;;;;;;;5073778;28;20383;-65
2022/10/16 10:02:18;;;;;;;10.95;2.25;;;;;;;;;;5073331;28;20074;-65
2022/10/16 10:04:54;;;;;;;13.52;2.20;;;;;;;;;;5073531;28;20048;-65
2022/10/16 10:07:34;;;;;;;12.13;2.30;;;;;;;;;;5053379;28;20059;-65
2022/10/16 10:10:00;;;;;;;10.70;2.10;;;;;;;;;;5053225;28;20219;-65
2022/10/16 10:12:28;;;;;;;9.57;1.83;;;;;;;;;;5053108;28;20671;-65
2022/10/16 10:14:56;;;;;;;9.13;1.70;;;;;;;;;;5053608;28;20363;-65
2022/10/16 10:17:26;;;;;;;9.70;1.92;;;;;;;;;;5052727;28;20036;-65
2022/10/16 10:19:52;;;;;;;9.27;1.55;;;;;;;;;;5053349;28;20035;-65
2022/10/16 10:22:23;;;;;;;7.85;1.92;;;;;;;;;;5052088;28;20460;-65
2022/10/16 10:25:08;;;;;;;8.20;1.70;;;;;;;;;;5052754;28;20131;-65
2022/10/16 10:27:52;;;;;;;13.15;1.77;;;;;;;;;;5053378;28;20460;-65
2022/10/16 10:30:21;;;;;;;10.82;1.90;;;;;;;;;;5052884;28;20041;-65
2022/10/16 10:32:50;;;;;;;10.60;2.15;;;;;;;;;;5053402;28;20116;-65
2022/10/16 10:35:23;;;;;;;7.50;1.48;;;;;;;;;;5053209;28;20106;-65
2022/10/16 10:38:07;;;;;;;9.57;1.67;;;;;;;;;;5052722;28;20044;-65
2022/10/16 10:40:37;;;;;;;10.95;2.00;;;;;;;;;;5052866;28;20376;-65
2022/10/16 10:43:08;;;;;;;11.45;1.90;;;;;;;;;;5052636;28;20039;-65
2022/10/16 10:45:42;;;;;;;10.32;2.22;;;;;;;;;;5052726;28;20052;-65
2022/10/16 10:48:28;;;;;;;9.52;1.75;;;;;;;;;;5053047;28;20479;-65
2022/10/16 10:51:26;;;;;;;9.27;1.73;;;;;;;;;;5052965;28;20036;-65
2022/10/16 10:53:55;;;;;;;8.52;2.10;;;;;;;;;;5050588;28;20099;-65
2022/10/16 10:56:39;;;;;;;10.50;1.70;;;;;;;;;;5052639;28;20412;-65
2022/10/16 10:59:16;;;;;;;9.95;1.95;;;;;;;;;;5052633;28;20036;-65
2022/10/16 11:01:49;;;;;;;9.90;2.17;;;;;;;;;;5051960;28;20033;-65
2022/10/16 11:04:34;;;;;;;10.70;2.20;;;;;;;;;;5052740;28;20048;-65
2022/10/16 11:07:02;;;;;;;10.30;2.00;;;;;;;;;;5070460;28;20421;-65
2022/10/16 11:09:34;;;;;;;7.90;1.70;;;;;;;;;;5072452;28;20051;-65
2022/10/16 11:12:12;;;;;;;11.13;1.80;;;;;;;;;;5071985;28;20125;-65
2022/10/16 11:15:01;;;;;;;11.38;2.33;;;;;;;;;;5072095;28;20483;-65
2022/10/16 11:17:40;;;;;;;8.70;2.20;;;;;;;;;;5071235;28;20123;-65
2022/10/16 11:20:06;;;;;;;9.95;1.77;;;;;;;;;;5072437;28;20042;-65
2022/10/16 11:22:38;;;;;;;11.10;2.05;;;;;;;;;;5070647;28;20105;-65
2022/10/16 11:25:23;;;;;;;7.95;1.30;;;;;;;;;;5071055;28;20495;-65
2022/10/16 11:28:10;;;;;;;10.98;1.52;;;;;;;;;;5072175;28;20380;-65
2022/10/16 11:30:58;;;;;;;8.77;1.80;;;;;;;;;;5071084;28;20072;-65
2022/10/16 11:33:39;;;;;;;9.18;1.60;;;;;;;;;;5072217;28;20044;-65
2022/10/16 11:36:05;;;;;;;12.70;1.88;;;;;;;;;;5072020;28;20109;-65
2022/10/16 11:38:32;;;;;;;8.60;1.75;;;;;;;;;;5071119;28;20104;-65
2022/10/16 11:41:18;;;;;;;11.20;1.92;;;;;;;;;;5071947;28;20384;-65
2022/10/16 11:44:05;;;;;;;12.55;1.90;;;;;;;;;;5071322;28;20080;-65
2022/10/16 11:46:31;;;;;;;8.70;1.73;;;;;;;;;;5060166;28;20044;-65
2022/10/16 11:49:15;;;;;;;8.82;1.80;;;;;;;;;;5071687;28;20036;-65
2022/10/16 11:51:44;;;;;;;8.63;1.73;;;;;;;;;;5071340;28;20048;-65
2022/10/16 11:54:10;;;;;;;11.18;1.83;;;;;;;;;;5071720;28;20400;-65
2022/10/16 11:56:39;;;;;;;12.45;1.58;;;;;;;;;;5071599;28;20042;-65
2022/10/16 11:59:31;;;;;;;10.45;1.52;;;;;;;;;;5071066;28;20037;-65
2022/10/16 12:02:03;;;;;;;11.23;1.60;;;;;;;;;;5069920;28;20131;-65
2022/10/16 12:04:32;;;;;;;;;;;;;;;;;;5070574;28;20049;-65
2022/10/16 12:07:04;;;;;;;7.50;1.48;;;;;;;;;;5070686;28;20026;-65
2022/10/16 12:09:31;;;;;;;9.13;1.50;;;;;;;;;;5071362;28;20136;-65
2022/10/16 12:11:58;;;;;;;12.27;1.90;;;;;;;;;;5069693;28;20407;-65
2022/10/16 12:14:35;;;;;;;8.45;1.77;;;;;;;;;;5069383;28;20053;-65
2022/10/16 12:17:05;;;;;;;8.85;1.73;;;;;;;;;;5071173;28;20090;-65
2022/10/16 12:19:32;;;;;;;12.75;2.08;;;;;;;;;;5069604;28;20051;-65
2022/10/16 12:22:00;;;;;;;10.00;1.73;;;;;;;;;;5070873;28;20105;-65
2022/10/16 12:24:40;;;;;;;6.25;1.15;;;;;;;;;;5071124;28;20048;-65
2022/10/16 12:27:20;;;;;;;8.48;1.65;;;;;;;;;;5069910;28;20036;-65
2022/10/16 12:29:46;;;;;;;7.28;1.35;;;;;;;;;;5070657;28;20463;-65
2022/10/16 12:32:41;;;;;;;12.05;1.60;;;;;;;;;;5069819;28;20037;-65
2022/10/16 12:35:17;;;;;;;6.00;1.20;;;;;;;;;;5069928;28;20063;-65
2022/10/16 12:37:45;;;;;;;9.90;1.50;;;;;;;;;;5069086;28;20378;-65
2022/10/16 12:40:25;;;;;;;10.77;1.80;;;;;;;;;;5069051;28;20040;-65
2022/10/16 12:42:51;;;;;;;11.45;2.22;;;;;;;;;;5070789;28;20130;-65
2022/10/16 12:45:25;;;;;;;9.48;1.45;;;;;;;;;;5070635;28;20506;-65
2022/10/16 12:47:53;;;;;;;11.52;1.85;;;;;;;;;;5070853;28;20040;-65
2022/10/16 12:50:30;;;;;;;9.65;1.40;;;;;;;;;;5070784;28;20763;-65
2022/10/16 12:52:56;;;;;;;8.77;1.35;;;;;;;;;;5070905;28;20044;-65
2022/10/16 12:55:23;;;;;;;5.78;1.38;;;;;;;;;;5070728;28;20415;-65
2022/10/16 12:58:04;;;;;;;8.68;1.50;;;;;;;;;;5070959;28;20044;-65
2022/10/16 13:00:40;;;;;;;7.82;1.70;;;;;;;;;;5070675;28;20040;-65
2022/10/16 13:03:15;;;;;;;9.65;1.30;;;;;;;;;;5070742;28;20040;-65
2022/10/16 13:05:41;;;;;;;7.78;1.23;;;;;;;;;;5070178;28;20040;-65
2022/10/16 13:08:07;;;;;;;11.68;1.50;;;;;;;;;;5070568;28;20040;-65
2022/10/16 13:10:41;;;;;;;8.52;1.30;;;;;;;;;;5070359;28;20132;-64
2022/10/16 13:13:14;;;;;;;8.07;1.92;;;;;;;;;;5069934;28;20049;-64
2022/10/16 13:15:40;;;;;;;9.65;1.80;;;;;;;;;;5070547;28;20128;-65
2022/10/16 13:18:13;;;;;;;9.45;1.90;;;;;;;;;;5070148;28;20098;-65
2022/10/16 13:20:58;;;;;;;7.40;1.60;;;;;;;;;;5069875;28;20101;-65
2022/10/16 13:23:35;;;;;;;11.20;2.10;;;;;;;;;;5070381;28;20037;-65
2022/10/16 13:26:13;;;;;;;6.65;1.35;;;;;;;;;;5070464;28;20074;-65
2022/10/16 13:28:39;;;;;;;7.47;1.88;;;;;;;;;;5070030;28;20040;-64
2022/10/16 13:31:05;;;;;;;10.85;2.15;;;;;;;;;;5070526;28;20392;-64
2022/10/16 13:33:36;;;;;;;8.95;1.40;;;;;;;;;;5070344;28;20673;-64
2022/10/16 13:36:03;;;;;;;9.48;2.05;;;;;;;;;;5069844;28;20438;-64
2022/10/16 13:38:32;;;;;;;8.75;1.30;;;;;;;;;;5069858;28;20080;-64
2022/10/16 13:41:02;;;;;;;10.63;1.88;;;;;;;;;;5070401;28;20119;-64
2022/10/16 13:43:40;;;;;;;9.38;1.75;;;;;;;;;;5069575;28;20131;-64
2022/10/16 13:46:07;;;;;;;7.35;1.55;;;;;;;;;;5070430;28;20036;-64
2022/10/16 13:48:34;;;;;;;12.10;1.88;;;;;;;;;;5070215;28;20044;-64
2022/10/16 13:51:04;;;;;;;13.02;1.98;;;;;;;;;;5069471;28;20032;-64
2022/10/16 13:53:31;;;;;;;8.98;1.48;;;;;;;;;;5071116;28;20365;-64
2022/10/16 13:55:57;;;;;;;9.35;1.70;;;;;;;;;;5073824;28;20040;-64
2022/10/16 13:58:23;;;;;;;9.57;1.67;;;;;;;;;;5073285;28;20052;-64
2022/10/16 14:00:54;;;;;;;8.43;1.75;;;;;;;;;;5073825;28;20043;-64
2022/10/16 14:03:20;;;;;;;8.82;1.83;;;;;;;;;;5073793;28;20028;-64
2022/10/16 14:05:50;;;;;;;8.32;1.90;;;;;;;;;;5073294;28;20044;-64
2022/10/16 14:08:17;;;;;;;13.95;1.50;;;;;;;;;;5073328;28;20147;-64
2022/10/16 14:10:43;;;;;;;9.32;1.55;;;;;;;;;;5073662;28;20471;-64
2022/10/16 14:13:17;;;;;;;12.05;1.50;;;;;;;;;;5071639;28;20052;-64
2022/10/16 14:15:46;;;;;;;13.23;1.75;;;;;;;;;;5073746;28;20059;-64
2022/10/16 14:18:25;;;;;;;11.75;1.85;;;;;;;;;;5073466;28;20043;-64
2022/10/16 14:20:52;;;;;;;11.77;1.98;;;;;;;;;;5073186;28;20040;-64
2022/10/16 14:23:23;;;;;;;12.00;2.30;;;;;;;;;;5073273;28;20090;-64
2022/10/16 14:25:49;;;;;;;7.25;1.25;;;;;;;;;;5073407;28;20040;-64
2022/10/16 14:28:15;;;;;;;9.70;1.52;;;;;;;;;;5073073;28;20045;-64
2022/10/16 14:31:01;;;;;;;11.38;1.83;;;;;;;;;;5073500;28;20078;-64
2022/10/16 14:33:30;;;;;;;8.95;1.55;;;;;;;;;;5072842;28;20139;-64
2022/10/16 14:36:02;;;;;;;11.27;1.42;;;;;;;;;;5072924;28;20483;-64
2022/10/16 14:38:28;;;;;;;13.05;1.70;;;;;;;;;;5073017;28;20060;-64
2022/10/16 14:40:57;;;;;;;15.18;3.15;;;;;;;;;;5071507;28;20090;-64
2022/10/16 14:43:29;;;;;;;17.38;2.28;;;;;;;;;;5072572;28;20124;-64
2022/10/16 14:45:57;;;;;;;9.73;1.92;;;;;;;;;;5073250;28;20052;-64
2022/10/16 14:48:24;;;;;;;10.15;1.88;;;;;;;;;;5072919;28;20040;-65
2022/10/16 14:50:49;;;;;;;12.80;2.13;;;;;;;;;;5072613;28;20089;-65
2022/10/16 14:53:16;;;;;;;14.23;1.80;;;;;;;;;;5072701;28;20182;-65